Station info - map view · info · telemetry · weather · raw · status · beacons · messages · bulletins · browse · moving · my account
Callsign, ship name or locator: Clear       
It is possible to search using wildcards (*?) after a prefix. Example: OH*
APRS station DB1EPO-9 - show graphs
Map loading...
Mic-E message: En route
Location: 50°57.54' N 6°57.98' E - locator JO30LX50XD - show map - static map
1.6 miles North bearing 10° from Köln-Innenstadt (Koeln-Innenstadt), North Rhine-Westphalia, Germany [?]
1.9 miles North bearing 22° from Köln (Koeln), Regierungsbezirk Köln, North Rhine-Westphalia, Germany
2.1 miles Northwest bearing 303° from Köln-Kalk (Koeln-Kalk), North Rhine-Westphalia, Germany
95.2 miles Northwest bearing 308° from Frankfurt am Main, Regierungsbezirk Darmstadt, Hesse, Germany
Last position: 2017-09-15 10:59:04 EDT (4d 17m ago)
2017-09-15 16:59:04 CEST local time at Köln-Innenstadt, Germany [?]
Altitude: 141 ft
Course: 291°
Speed: 4 MPH
Device: Yaesu: FTM-100D (rig)
Last path: DB1EPO-9>UP5WU4 via WIDE1-1,WIDE2-1,qAR,DB0NIS-10 (good)
Positions stored: 689
Packet rate: 136 seconds between packets on average during 6533 seconds.
Other SSIDs: DB1EPO DB1EPO-2 DB1EPO-5 DB1EPO-7 DB1EPO-Y
Stations near current position of DB1EPO-9 - show more
callsign distance last heard - EDT      callsign distance last heard - EDT
DL2FJK0.4 miles 177°2017-08-21 14:25:22 DL2QB-91.6 miles 76°2017-09-11 08:36:29
PS-DG1KWA1.8 miles 198°2017-09-19 11:00:25 EL-0088501.8 miles 198°2017-09-19 11:11:40
DB0KOE1.8 miles 198°2017-09-19 11:11:40 DO5ASW1.9 miles 86°2017-09-10 10:55:57
DO4DAX-22.0 miles 168°2017-09-19 11:15:05 DO4DAX-12.1 miles 168°2017-09-19 10:22:30
DO4DAX-102.1 miles 168°2017-09-17 09:11:21 DO4DAX-72.1 miles 167°2017-09-17 09:09:30
DG4IX2.2 miles 335°2017-09-09 12:30:05 145.775-G2.2 miles 210°2017-09-19 11:01:59
DB0TUV-B2.7 miles 155°2017-09-19 11:04:53 DB0TUV B2.7 miles 155°2017-09-19 11:04:43
DL1KD-92.9 miles 192°2017-09-19 11:14:05 DG4FR B3.2 miles 27°2017-09-19 11:05:22
DG4FR-B3.2 miles 27°2017-09-19 11:05:32 DD1QO B3.2 miles 27°2017-09-19 11:06:58
DD1QO-B3.2 miles 27°2017-09-19 11:07:08 DO4DAX3.5 miles 156°2017-09-15 11:17:07
Stations which heard DB1EPO-9 directly on radio –
callsign pkts first heard - EDT last heard longest (tx => rx) longest at - EDT
DB0KH 1 2017-09-12 02:17:43 2017-09-12 02:17:43 JO40IK > JO40RV 45.6 miles 44° 2017-09-12 02:17:43
DB0MYK 3 2017-09-12 00:52:16 2017-09-12 01:10:36 JO30WX > JO30OJ 49.0 miles 215° 2017-09-12 01:09:30
DB0KT 27 2017-09-12 01:33:52 2017-09-15 09:42:44 JO40BS > JO40PL 52.7 miles 111° 2017-09-12 01:33:52
DB0END 1 2017-09-12 00:13:37 2017-09-12 00:13:37 JO31JC > JO31PH 25.9 miles 59° 2017-09-12 00:13:37
DB0OVN-2 1 2017-09-12 00:10:06 2017-09-12 00:10:06 JO31JD > JO31ID 0.8 miles 318° 2017-09-12 00:10:06
DB0OTV-2 1 2017-09-12 00:13:35 2017-09-12 00:13:35 JO31JC > JO31HG 12.8 miles 321° 2017-09-12 00:13:35
DB0RHB 4 2017-09-12 00:28:50 2017-09-12 01:02:07 JO30TX > JO30LN 41.0 miles 228° 2017-09-12 01:02:07
DB0NY 19 2017-09-12 00:31:47 2017-09-15 10:42:28 JO40BS > JO31TB 31.8 miles 312° 2017-09-15 10:00:57
DB0BOS 4 2017-09-12 02:07:49 2017-09-15 09:24:15 JO40IL > JN49LR 51.1 miles 170° 2017-09-12 02:07:49
DK0HQ 3 2017-09-12 00:26:03 2017-09-12 00:34:56 JO30LX > JO30NR 19.1 miles 150° 2017-09-12 00:26:03
DB0KWE 1 2017-09-15 10:40:00 2017-09-15 10:40:00 JO30QX > JO30DU 47.5 miles 258° 2017-09-15 10:40:00
DL8KZ 8 2017-09-12 00:12:05 2017-09-15 10:53:45 JO31JD > JO30PQ 37.6 miles 146° 2017-09-12 00:12:05
DK3RW-2 1 2017-09-12 02:31:00 2017-09-12 02:31:00 JO40IJ > JO40LQ 22.1 miles 36° 2017-09-12 02:31:00
DB0UHC 2 2017-09-12 00:08:05 2017-09-15 10:56:18 JO30LW > JO31HB 18.5 miles 295° 2017-09-15 10:56:18
DB0FDA 1 2017-09-15 09:19:44 2017-09-15 09:19:44 JO40IJ > JN49HU 36.4 miles 185° 2017-09-15 09:19:44
DB0LDK 22 2017-09-12 01:43:08 2017-09-15 09:51:00 JO40DQ > JO40GM 14.6 miles 137° 2017-09-12 01:43:08
DF8JE-10 1 2017-09-12 00:07:31 2017-09-12 00:07:31 JO31IE > JO31ID 1.1 miles 214° 2017-09-12 00:07:31
DB0NIS-10 11 2017-09-12 00:13:35 2017-09-15 10:59:04 JO30UX > JO30EP 61.4 miles 250° 2017-09-12 01:04:46
DB5WY-13 1 2017-09-15 09:31:47 2017-09-15 09:31:47 JO40IM > JO30XO 31.5 miles 280° 2017-09-15 09:31:47
DB0KU-10 7 2017-09-12 01:06:09 2017-09-15 10:39:21 JO30QX > JO41BE 33.9 miles 63° 2017-09-15 10:39:21
DB0GM 10 2017-09-12 00:54:32 2017-09-15 10:39:21 JO30UX > JO30SX 7.9 miles 285° 2017-09-15 10:29:35

Only position packets which were originated by the station are shown here. The range statistics show some extra long hops, because some digipeaters do not correctly add themselves to the digipeater path. Please check the raw packets.
About this site
This page shows real-time information collected from the Automatic Position Reporting System Internet network (APRS-IS). APRS is used by amateur (ham) radio operators to transmit real-time position information, weather data, telemetry and messages over the radio. A vehicle equipped with a GPS receiver, a VHF transmitter or HF transceiver and a small computer device called a tracker transmits it's location, speed and course in a small data packet, which is then received by a nearby iGate receiving site which forwards the packet on the Internet. Systems connected to the Internet can send information on the APRS-IS without a radio transmitter, or collect and display information transmitted anywhere in the world.
FAQ · Blog · Discussion group · Linking to aprs.fi · AIS sites · Service status · Database statistics · Advertising on aprs.fi · Technical details · API · Change log · Planned changes · Credits and thanks · Terms Of Service · iPhone/iPad APRS